sensor_id;sensor_type;location;lat;lon;timestamp;pressure;altitude;pressure_sealevel;temperature;humidity
69689;BME280;56932;38.402;-96.176;2023-02-28T00:02:19;96574.11;;;23.30;24.44
69689;BME280;56932;38.402;-96.176;2023-02-28T00:04:44;96576.35;;;23.61;24.32
69689;BME280;56932;38.402;-96.176;2023-02-28T00:07:10;96579.69;;;23.27;24.42
69689;BME280;56932;38.402;-96.176;2023-02-28T00:09:35;96592.40;;;23.27;24.40
69689;BME280;56932;38.402;-96.176;2023-02-28T00:12:01;96595.75;;;23.45;24.21
69689;BME280;56932;38.402;-96.176;2023-02-28T00:14:26;96589.96;;;23.40;24.58
69689;BME280;56932;38.402;-96.176;2023-02-28T00:16:52;96587.53;;;22.24;24.91
69689;BME280;56932;38.402;-96.176;2023-02-28T00:19:17;96585.96;;;22.73;25.12
69689;BME280;56932;38.402;-96.176;2023-02-28T00:21:43;96588.38;;;23.61;24.00
69689;BME280;56932;38.402;-96.176;2023-02-28T00:24:08;96595.25;;;23.32;23.86
69689;BME280;56932;38.402;-96.176;2023-02-28T00:26:34;96598.90;;;24.11;22.92
69689;BME280;56932;38.402;-96.176;2023-02-28T00:28:59;96598.77;;;23.34;23.20
69689;BME280;56932;38.402;-96.176;2023-02-28T00:31:25;96601.11;;;23.40;23.37
69689;BME280;56932;38.402;-96.176;2023-02-28T00:33:51;96599.44;;;23.96;22.72
69689;BME280;56932;38.402;-96.176;2023-02-28T00:36:16;96602.03;;;23.82;22.85
69689;BME280;56932;38.402;-96.176;2023-02-28T00:38:42;96604.28;;;23.92;22.69
69689;BME280;56932;38.402;-96.176;2023-02-28T00:41:08;96603.39;;;24.08;22.72
69689;BME280;56932;38.402;-96.176;2023-02-28T00:43:33;96605.56;;;23.91;22.87
69689;BME280;56932;38.402;-96.176;2023-02-28T00:45:58;96613.10;;;23.85;22.56
69689;BME280;56932;38.402;-96.176;2023-02-28T00:48:23;96617.70;;;24.11;22.76
69689;BME280;56932;38.402;-96.176;2023-02-28T00:50:50;96620.72;;;23.30;23.18
69689;BME280;56932;38.402;-96.176;2023-02-28T00:53:14;96617.28;;;22.68;24.33
69689;BME280;56932;38.402;-96.176;2023-02-28T00:55:40;96620.64;;;24.14;23.11
69689;BME280;56932;38.402;-96.176;2023-02-28T00:58:05;96630.77;;;24.23;23.16
69689;BME280;56932;38.402;-96.176;2023-02-28T01:00:31;96637.39;;;24.58;22.65
69689;BME280;56932;38.402;-96.176;2023-02-28T01:02:57;96641.58;;;24.44;22.70
69689;BME280;56932;38.402;-96.176;2023-02-28T01:05:22;96648.38;;;23.78;23.58
69689;BME280;56932;38.402;-96.176;2023-02-28T01:07:48;96651.69;;;23.87;23.57
69689;BME280;56932;38.402;-96.176;2023-02-28T01:10:13;96653.37;;;24.55;23.06
69689;BME280;56932;38.402;-96.176;2023-02-28T01:12:39;96657.39;;;23.92;23.70
69689;BME280;56932;38.402;-96.176;2023-02-28T01:15:05;96659.26;;;24.10;23.29
69689;BME280;56932;38.402;-96.176;2023-02-28T01:17:30;96668.40;;;24.54;23.58
69689;BME280;56932;38.402;-96.176;2023-02-28T01:19:55;96669.27;;;24.25;24.04
69689;BME280;56932;38.402;-96.176;2023-02-28T01:22:20;96672.05;;;24.17;24.66
69689;BME280;56932;38.402;-96.176;2023-02-28T01:24:46;96670.40;;;24.42;24.56
69689;BME280;56932;38.402;-96.176;2023-02-28T01:27:11;96673.13;;;24.29;24.79
69689;BME280;56932;38.402;-96.176;2023-02-28T01:29:37;96670.02;;;24.67;24.53
69689;BME280;56932;38.402;-96.176;2023-02-28T01:32:02;96671.85;;;23.92;24.96
69689;BME280;56932;38.402;-96.176;2023-02-28T01:34:28;96674.36;;;24.56;25.17
69689;BME280;56932;38.402;-96.176;2023-02-28T01:36:54;96683.21;;;24.45;24.29
69689;BME280;56932;38.402;-96.176;2023-02-28T01:39:19;96688.41;;;25.29;24.14
69689;BME280;56932;38.402;-96.176;2023-02-28T01:41:45;96689.50;;;25.08;24.29
69689;BME280;56932;38.402;-96.176;2023-02-28T01:46:36;96697.13;;;24.09;25.19
69689;BME280;56932;38.402;-96.176;2023-02-28T01:49:06;96701.39;;;24.48;24.86
69689;BME280;56932;38.402;-96.176;2023-02-28T01:51:30;96704.03;;;24.45;24.99
69689;BME280;56932;38.402;-96.176;2023-02-28T01:53:57;96702.52;;;23.41;25.37
69689;BME280;56932;38.402;-96.176;2023-02-28T01:56:20;96704.47;;;24.64;24.63
69689;BME280;56932;38.402;-96.176;2023-02-28T01:58:43;96706.53;;;23.94;25.23
69689;BME280;56932;38.402;-96.176;2023-02-28T02:01:08;96707.52;;;24.30;25.18
69689;BME280;56932;38.402;-96.176;2023-02-28T02:03:35;96707.93;;;25.16;24.68
69689;BME280;56932;38.402;-96.176;2023-02-28T02:05:59;96713.80;;;24.36;24.69
69689;BME280;56932;38.402;-96.176;2023-02-28T02:08:28;96722.35;;;24.55;24.95
69689;BME280;56932;38.402;-96.176;2023-02-28T02:10:52;96728.42;;;23.68;25.59
69689;BME280;56932;38.402;-96.176;2023-02-28T02:13:32;96736.90;;;24.75;25.31
69689;BME280;56932;38.402;-96.176;2023-02-28T02:15:47;96742.38;;;25.11;25.19
69689;BME280;56932;38.402;-96.176;2023-02-28T02:18:14;96751.80;;;25.02;25.57
69689;BME280;56932;38.402;-96.176;2023-02-28T02:20:42;96753.87;;;24.74;25.49
69689;BME280;56932;38.402;-96.176;2023-02-28T02:23:12;96757.28;;;24.60;25.46
69689;BME280;56932;38.402;-96.176;2023-02-28T02:25:28;96763.34;;;24.92;25.31
69689;BME280;56932;38.402;-96.176;2023-02-28T02:27:59;96768.16;;;24.87;25.37
69689;BME280;56932;38.402;-96.176;2023-02-28T02:35:12;96782.38;;;24.68;26.13
69689;BME280;56932;38.402;-96.176;2023-02-28T02:37:37;96782.63;;;24.47;26.44
69689;BME280;56932;38.402;-96.176;2023-02-28T02:40:02;96786.62;;;24.35;26.26
69689;BME280;56932;38.402;-96.176;2023-02-28T02:42:27;96788.91;;;24.77;26.35
69689;BME280;56932;38.402;-96.176;2023-02-28T02:44:52;96790.79;;;24.15;26.77
69689;BME280;56932;38.402;-96.176;2023-02-28T02:47:16;96790.23;;;24.25;26.32
69689;BME280;56932;38.402;-96.176;2023-02-28T02:49:41;96786.64;;;24.61;25.94
69689;BME280;56932;38.402;-96.176;2023-02-28T02:52:07;96792.03;;;24.90;25.93
69689;BME280;56932;38.402;-96.176;2023-02-28T02:54:33;96799.20;;;24.81;25.99
69689;BME280;56932;38.402;-96.176;2023-02-28T02:56:59;96817.73;;;24.36;26.23
69689;BME280;56932;38.402;-96.176;2023-02-28T02:59:21;96827.39;;;24.90;25.59
69689;BME280;56932;38.402;-96.176;2023-02-28T03:01:47;96836.95;;;24.59;25.75
69689;BME280;56932;38.402;-96.176;2023-02-28T03:04:18;96846.38;;;23.96;26.29
69689;BME280;56932;38.402;-96.176;2023-02-28T03:06:37;96854.98;;;24.80;25.61
69689;BME280;56932;38.402;-96.176;2023-02-28T03:09:03;96865.66;;;24.63;25.45
69689;BME280;56932;38.402;-96.176;2023-02-28T03:11:29;96873.18;;;24.02;25.96
69689;BME280;56932;38.402;-96.176;2023-02-28T03:14:07;96873.89;;;24.24;25.52
69689;BME280;56932;38.402;-96.176;2023-02-28T03:16:33;96884.05;;;24.88;25.08
69689;BME280;56932;38.402;-96.176;2023-02-28T03:18:51;96890.50;;;24.79;25.12
69689;BME280;56932;38.402;-96.176;2023-02-28T03:21:14;96893.92;;;24.87;25.22
69689;BME280;56932;38.402;-96.176;2023-02-28T03:23:41;96892.63;;;24.60;25.12
69689;BME280;56932;38.402;-96.176;2023-02-28T03:26:04;96891.08;;;24.42;25.21
69689;BME280;56932;38.402;-96.176;2023-02-28T03:28:32;96895.36;;;24.33;25.47
69689;BME280;56932;38.402;-96.176;2023-02-28T03:30:56;96898.25;;;22.91;26.14
69689;BME280;56932;38.402;-96.176;2023-02-28T03:33:20;96897.16;;;23.65;25.80
69689;BME280;56932;38.402;-96.176;2023-02-28T03:35:45;96900.23;;;23.45;25.87
69689;BME280;56932;38.402;-96.176;2023-02-28T03:38:11;96899.04;;;23.86;25.40
69689;BME280;56932;38.402;-96.176;2023-02-28T03:40:36;96900.05;;;24.16;25.49
69689;BME280;56932;38.402;-96.176;2023-02-28T03:43:03;96908.77;;;23.12;25.89
69689;BME280;56932;38.402;-96.176;2023-02-28T03:45:27;96914.17;;;23.56;25.86
69689;BME280;56932;38.402;-96.176;2023-02-28T03:47:54;96924.64;;;23.03;25.85
69689;BME280;56932;38.402;-96.176;2023-02-28T03:50:18;96931.31;;;24.00;25.24
69689;BME280;56932;38.402;-96.176;2023-02-28T03:52:46;96933.58;;;23.14;26.00
69689;BME280;56932;38.402;-96.176;2023-02-28T03:55:10;96931.87;;;23.50;25.41
69689;BME280;56932;38.402;-96.176;2023-02-28T03:57:37;96933.04;;;23.38;25.61
69689;BME280;56932;38.402;-96.176;2023-02-28T04:00:00;96936.81;;;22.58;26.04
69689;BME280;56932;38.402;-96.176;2023-02-28T04:02:23;96934.32;;;22.91;25.88
69689;BME280;56932;38.402;-96.176;2023-02-28T04:04:49;96936.45;;;23.09;25.43
69689;BME280;56932;38.402;-96.176;2023-02-28T04:07:15;96932.84;;;22.97;25.64
69689;BME280;56932;38.402;-96.176;2023-02-28T04:09:39;96930.13;;;23.02;25.50
69689;BME280;56932;38.402;-96.176;2023-02-28T04:12:05;96935.27;;;22.31;25.89
69689;BME280;56932;38.402;-96.176;2023-02-28T04:14:30;96938.90;;;22.43;25.89
69689;BME280;56932;38.402;-96.176;2023-02-28T04:16:56;96943.35;;;21.90;26.12
69689;BME280;56932;38.402;-96.176;2023-02-28T04:19:22;96948.41;;;23.24;25.03
69689;BME280;56932;38.402;-96.176;2023-02-28T04:21:50;96949.99;;;23.17;24.96
69689;BME280;56932;38.402;-96.176;2023-02-28T04:24:15;96951.28;;;23.01;25.00
69689;BME280;56932;38.402;-96.176;2023-02-28T04:26:38;96952.54;;;22.76;25.15
69689;BME280;56932;38.402;-96.176;2023-02-28T04:29:06;96956.12;;;22.90;25.01
69689;BME280;56932;38.402;-96.176;2023-02-28T04:31:29;96957.74;;;23.56;24.56
69689;BME280;56932;38.402;-96.176;2023-02-28T04:33:55;96967.28;;;22.12;24.86
69689;BME280;56932;38.402;-96.176;2023-02-28T04:36:20;96963.82;;;22.70;25.19
69689;BME280;56932;38.402;-96.176;2023-02-28T04:38:47;96961.91;;;22.54;25.29
69689;BME280;56932;38.402;-96.176;2023-02-28T04:41:11;96963.71;;;22.72;24.77
69689;BME280;56932;38.402;-96.176;2023-02-28T04:43:37;96962.97;;;22.39;25.00
69689;BME280;56932;38.402;-96.176;2023-02-28T04:46:04;96958.99;;;22.11;24.99
69689;BME280;56932;38.402;-96.176;2023-02-28T04:48:30;96957.60;;;22.98;24.66
69689;BME280;56932;38.402;-96.176;2023-02-28T04:50:53;96957.25;;;22.12;24.90
69689;BME280;56932;38.402;-96.176;2023-02-28T04:53:19;96959.60;;;21.99;25.19
69689;BME280;56932;38.402;-96.176;2023-02-28T04:55:45;96953.01;;;21.67;25.43
69689;BME280;56932;38.402;-96.176;2023-02-28T04:58:10;96946.70;;;21.82;25.17
69689;BME280;56932;38.402;-96.176;2023-02-28T05:00:35;96948.67;;;22.28;24.70
69689;BME280;56932;38.402;-96.176;2023-02-28T05:03:01;96953.26;;;22.32;24.38
69689;BME280;56932;38.402;-96.176;2023-02-28T05:05:26;96952.49;;;21.91;24.94
69689;BME280;56932;38.402;-96.176;2023-02-28T05:07:52;96953.55;;;21.47;25.07
69689;BME280;56932;38.402;-96.176;2023-02-28T05:10:18;96962.23;;;21.87;24.88
69689;BME280;56932;38.402;-96.176;2023-02-28T05:12:43;96969.05;;;22.56;24.22
69689;BME280;56932;38.402;-96.176;2023-02-28T05:15:13;96967.53;;;21.95;24.71
69689;BME280;56932;38.402;-96.176;2023-02-28T05:17:34;96963.40;;;22.60;24.33
69689;BME280;56932;38.402;-96.176;2023-02-28T05:20:00;96957.80;;;22.09;24.31
69689;BME280;56932;38.402;-96.176;2023-02-28T05:22:25;96957.79;;;22.57;24.22
69689;BME280;56932;38.402;-96.176;2023-02-28T05:24:51;96956.33;;;21.86;24.57
69689;BME280;56932;38.402;-96.176;2023-02-28T05:27:16;96956.29;;;21.92;24.47
69689;BME280;56932;38.402;-96.176;2023-02-28T05:29:42;96949.32;;;21.52;25.05
69689;BME280;56932;38.402;-96.176;2023-02-28T05:32:08;96945.01;;;21.70;24.61
69689;BME280;56932;38.402;-96.176;2023-02-28T05:34:33;96940.12;;;22.10;24.64
69689;BME280;56932;38.402;-96.176;2023-02-28T05:36:58;96945.52;;;21.97;24.26
69689;BME280;56932;38.402;-96.176;2023-02-28T05:39:24;96945.96;;;22.13;24.31
69689;BME280;56932;38.402;-96.176;2023-02-28T05:41:50;96945.44;;;21.83;24.30
69689;BME280;56932;38.402;-96.176;2023-02-28T05:44:15;96944.72;;;22.27;24.26
69689;BME280;56932;38.402;-96.176;2023-02-28T05:46:40;96947.34;;;22.04;24.21
69689;BME280;56932;38.402;-96.176;2023-02-28T05:49:06;96947.21;;;21.77;24.22
69689;BME280;56932;38.402;-96.176;2023-02-28T05:51:31;96944.51;;;22.06;24.10
69689;BME280;56932;38.402;-96.176;2023-02-28T05:54:00;96941.52;;;21.22;24.11
69689;BME280;56932;38.402;-96.176;2023-02-28T05:56:22;96944.00;;;21.65;24.15
69689;BME280;56932;38.402;-96.176;2023-02-28T05:58:48;96948.92;;;21.96;23.86
69689;BME280;56932;38.402;-96.176;2023-02-28T06:01:22;96950.39;;;21.60;24.13
69689;BME280;56932;38.402;-96.176;2023-02-28T06:03:39;96951.99;;;21.51;24.41
69689;BME280;56932;38.402;-96.176;2023-02-28T06:06:05;96955.46;;;20.06;23.93
69689;BME280;56932;38.402;-96.176;2023-02-28T06:08:29;96957.38;;;21.99;23.64
69689;BME280;56932;38.402;-96.176;2023-02-28T06:10:55;96957.84;;;21.36;23.72
69689;BME280;56932;38.402;-96.176;2023-02-28T06:13:20;96963.19;;;22.50;23.57
69689;BME280;56932;38.402;-96.176;2023-02-28T06:15:46;96968.77;;;22.16;23.62
69689;BME280;56932;38.402;-96.176;2023-02-28T06:18:12;96977.65;;;22.23;23.75
69689;BME280;56932;38.402;-96.176;2023-02-28T06:20:37;96993.58;;;22.38;23.59
69689;BME280;56932;38.402;-96.176;2023-02-28T06:23:03;97005.79;;;21.72;23.98
69689;BME280;56932;38.402;-96.176;2023-02-28T06:25:28;97008.50;;;22.41;23.76
69689;BME280;56932;38.402;-96.176;2023-02-28T06:27:55;97009.98;;;21.16;24.19
69689;BME280;56932;38.402;-96.176;2023-02-28T06:30:19;97018.49;;;21.53;24.06
69689;BME280;56932;38.402;-96.176;2023-02-28T06:32:45;97017.84;;;21.67;24.08
69689;BME280;56932;38.402;-96.176;2023-02-28T06:35:10;97023.57;;;22.01;23.56
69689;BME280;56932;38.402;-96.176;2023-02-28T06:37:36;97027.05;;;21.94;23.79
69689;BME280;56932;38.402;-96.176;2023-02-28T06:40:02;97031.63;;;22.06;23.65
69689;BME280;56932;38.402;-96.176;2023-02-28T06:42:27;97029.49;;;21.04;24.76
69689;BME280;56932;38.402;-96.176;2023-02-28T06:44:53;97014.52;;;20.46;24.40
69689;BME280;56932;38.402;-96.176;2023-02-28T06:47:18;97011.59;;;22.14;23.53
69689;BME280;56932;38.402;-96.176;2023-02-28T06:49:43;97015.54;;;21.98;23.60
69689;BME280;56932;38.402;-96.176;2023-02-28T06:52:09;97026.99;;;21.84;23.69
69689;BME280;56932;38.402;-96.176;2023-02-28T06:54:35;97032.87;;;21.39;23.91
69689;BME280;56932;38.402;-96.176;2023-02-28T06:57:00;97029.27;;;21.20;24.01
69689;BME280;56932;38.402;-96.176;2023-02-28T06:59:26;97024.26;;;21.92;23.54
69689;BME280;56932;38.402;-96.176;2023-02-28T07:01:52;97015.89;;;21.27;23.62
69689;BME280;56932;38.402;-96.176;2023-02-28T07:04:17;97010.70;;;21.80;23.60
69689;BME280;56932;38.402;-96.176;2023-02-28T07:06:42;97015.17;;;21.41;23.67
69689;BME280;56932;38.402;-96.176;2023-02-28T07:09:08;97014.91;;;21.43;23.37
69689;BME280;56932;38.402;-96.176;2023-02-28T07:11:33;97013.05;;;21.74;23.52
69689;BME280;56932;38.402;-96.176;2023-02-28T07:13:59;97012.97;;;21.60;23.43
69689;BME280;56932;38.402;-96.176;2023-02-28T07:16:25;97012.02;;;22.11;23.35
69689;BME280;56932;38.402;-96.176;2023-02-28T07:18:52;97015.66;;;21.04;23.61
69689;BME280;56932;38.402;-96.176;2023-02-28T07:21:16;97019.65;;;21.58;23.53
69689;BME280;56932;38.402;-96.176;2023-02-28T07:23:41;97027.67;;;21.51;23.63
69689;BME280;56932;38.402;-96.176;2023-02-28T07:26:08;97027.50;;;21.62;23.27
69689;BME280;56932;38.402;-96.176;2023-02-28T07:28:32;97025.65;;;20.82;24.09
69689;BME280;56932;38.402;-96.176;2023-02-28T07:31:03;97029.72;;;20.56;23.88
69689;BME280;56932;38.402;-96.176;2023-02-28T07:33:23;97035.57;;;21.93;23.28
69689;BME280;56932;38.402;-96.176;2023-02-28T07:35:49;97035.14;;;21.69;23.27
69689;BME280;56932;38.402;-96.176;2023-02-28T07:38:14;97029.74;;;21.48;23.41
69689;BME280;56932;38.402;-96.176;2023-02-28T07:40:40;97023.37;;;21.29;23.56
69689;BME280;56932;38.402;-96.176;2023-02-28T07:43:05;97018.47;;;21.28;23.51
69689;BME280;56932;38.402;-96.176;2023-02-28T07:45:31;97007.69;;;21.22;23.55
69689;BME280;56932;38.402;-96.176;2023-02-28T07:47:56;97002.58;;;20.79;23.47
69689;BME280;56932;38.402;-96.176;2023-02-28T07:50:22;96997.09;;;21.08;23.61
69689;BME280;56932;38.402;-96.176;2023-02-28T07:52:47;96997.12;;;21.21;23.42
69689;BME280;56932;38.402;-96.176;2023-02-28T07:55:13;96990.40;;;21.33;23.31
69689;BME280;56932;38.402;-96.176;2023-02-28T07:57:38;96998.08;;;21.38;23.25
69689;BME280;56932;38.402;-96.176;2023-02-28T08:00:05;97006.81;;;21.11;23.27
69689;BME280;56932;38.402;-96.176;2023-02-28T08:02:29;97002.44;;;21.12;23.66
69689;BME280;56932;38.402;-96.176;2023-02-28T08:04:55;96993.84;;;20.83;23.28
69689;BME280;56932;38.402;-96.176;2023-02-28T08:07:20;96983.80;;;21.53;23.04
69689;BME280;56932;38.402;-96.176;2023-02-28T08:09:46;96976.56;;;21.43;23.25
69689;BME280;56932;38.402;-96.176;2023-02-28T08:12:11;96974.67;;;21.60;23.06
69689;BME280;56932;38.402;-96.176;2023-02-28T08:14:37;96968.90;;;21.20;23.41
69689;BME280;56932;38.402;-96.176;2023-02-28T08:17:03;96963.06;;;21.18;23.20
69689;BME280;56932;38.402;-96.176;2023-02-28T08:19:28;96964.82;;;21.32;23.23
69689;BME280;56932;38.402;-96.176;2023-02-28T08:21:54;96957.94;;;20.38;23.39
69689;BME280;56932;38.402;-96.176;2023-02-28T08:24:19;96952.63;;;21.10;23.19
69689;BME280;56932;38.402;-96.176;2023-02-28T08:26:45;96950.06;;;21.12;23.36
69689;BME280;56932;38.402;-96.176;2023-02-28T08:29:10;96945.95;;;21.36;22.93
69689;BME280;56932;38.402;-96.176;2023-02-28T08:31:36;96944.20;;;21.11;23.10
69689;BME280;56932;38.402;-96.176;2023-02-28T08:34:05;96946.84;;;20.91;23.08
69689;BME280;56932;38.402;-96.176;2023-02-28T08:36:27;96949.31;;;21.39;23.02
69689;BME280;56932;38.402;-96.176;2023-02-28T08:38:53;96949.98;;;20.42;23.19
69689;BME280;56932;38.402;-96.176;2023-02-28T08:41:18;96947.46;;;21.23;23.12
69689;BME280;56932;38.402;-96.176;2023-02-28T08:43:44;96944.29;;;21.01;23.34
69689;BME280;56932;38.402;-96.176;2023-02-28T08:46:11;96945.39;;;20.73;23.33
69689;BME280;56932;38.402;-96.176;2023-02-28T08:48:35;96945.95;;;21.07;23.19
69689;BME280;56932;38.402;-96.176;2023-02-28T08:51:02;96944.12;;;21.07;22.97
69689;BME280;56932;38.402;-96.176;2023-02-28T08:53:26;96933.76;;;20.54;23.39
69689;BME280;56932;38.402;-96.176;2023-02-28T08:55:56;96927.97;;;20.35;23.15
69689;BME280;56932;38.402;-96.176;2023-02-28T08:58:17;96923.64;;;20.91;23.04
69689;BME280;56932;38.402;-96.176;2023-02-28T09:00:42;96921.02;;;21.05;23.10
69689;BME280;56932;38.402;-96.176;2023-02-28T09:03:08;96915.03;;;21.29;22.88
69689;BME280;56932;38.402;-96.176;2023-02-28T09:05:33;96921.43;;;20.96;23.16
69689;BME280;56932;38.402;-96.176;2023-02-28T09:07:59;96925.42;;;20.62;23.21
69689;BME280;56932;38.402;-96.176;2023-02-28T09:10:24;96925.23;;;20.70;23.34
69689;BME280;56932;38.402;-96.176;2023-02-28T09:12:50;96926.56;;;20.78;23.06
69689;BME280;56932;38.402;-96.176;2023-02-28T09:15:15;96921.89;;;20.74;23.05
69689;BME280;56932;38.402;-96.176;2023-02-28T09:17:41;96919.92;;;21.42;22.88
69689;BME280;56932;38.402;-96.176;2023-02-28T09:20:08;96914.28;;;20.40;23.33
69689;BME280;56932;38.402;-96.176;2023-02-28T09:22:32;96906.21;;;20.68;23.07
69689;BME280;56932;38.402;-96.176;2023-02-28T09:24:58;96897.87;;;20.27;22.99
69689;BME280;56932;38.402;-96.176;2023-02-28T09:27:23;96894.17;;;20.88;23.29
69689;BME280;56932;38.402;-96.176;2023-02-28T09:29:49;96895.84;;;20.90;22.86
69689;BME280;56932;38.402;-96.176;2023-02-28T09:32:14;96894.26;;;20.77;23.09
69689;BME280;56932;38.402;-96.176;2023-02-28T09:34:40;96898.56;;;20.98;22.91
69689;BME280;56932;38.402;-96.176;2023-02-28T09:37:05;96892.42;;;20.52;23.09
69689;BME280;56932;38.402;-96.176;2023-02-28T09:39:31;96896.93;;;20.76;23.13
69689;BME280;56932;38.402;-96.176;2023-02-28T09:41:58;96899.43;;;20.25;22.85
69689;BME280;56932;38.402;-96.176;2023-02-28T09:44:28;96899.19;;;20.22;23.47
69689;BME280;56932;38.402;-96.176;2023-02-28T09:46:51;96893.03;;;20.80;22.95
69689;BME280;56932;38.402;-96.176;2023-02-28T09:49:16;96890.56;;;20.68;23.06
69689;BME280;56932;38.402;-96.176;2023-02-28T09:51:46;96886.86;;;20.47;23.44
69689;BME280;56932;38.402;-96.176;2023-02-28T09:54:05;96885.80;;;20.82;23.15
69689;BME280;56932;38.402;-96.176;2023-02-28T09:56:36;96886.19;;;20.33;23.31
69689;BME280;56932;38.402;-96.176;2023-02-28T09:58:58;96875.98;;;20.00;22.96
69689;BME280;56932;38.402;-96.176;2023-02-28T10:01:25;96864.18;;;20.57;23.25
69689;BME280;56932;38.402;-96.176;2023-02-28T10:03:52;96868.45;;;21.00;22.87
69689;BME280;56932;38.402;-96.176;2023-02-28T10:06:16;96873.62;;;21.02;22.84
69689;BME280;56932;38.402;-96.176;2023-02-28T10:08:42;96869.86;;;20.30;23.19
69689;BME280;56932;38.402;-96.176;2023-02-28T10:11:08;96869.06;;;20.07;23.18
69689;BME280;56932;38.402;-96.176;2023-02-28T10:13:34;96869.74;;;20.14;23.32
69689;BME280;56932;38.402;-96.176;2023-02-28T10:15:58;96876.17;;;20.41;22.70
69689;BME280;56932;38.402;-96.176;2023-02-28T10:18:24;96882.73;;;20.00;23.17
69689;BME280;56932;38.402;-96.176;2023-02-28T10:20:47;96894.90;;;20.76;22.93
69689;BME280;56932;38.402;-96.176;2023-02-28T10:23:17;96907.67;;;19.84;23.50
69689;BME280;56932;38.402;-96.176;2023-02-28T10:25:38;96908.24;;;20.70;22.97
69689;BME280;56932;38.402;-96.176;2023-02-28T10:28:10;96909.67;;;20.12;23.08
69689;BME280;56932;38.402;-96.176;2023-02-28T10:30:28;96908.87;;;20.61;23.04
69689;BME280;56932;38.402;-96.176;2023-02-28T10:32:54;96903.33;;;20.13;23.02
69689;BME280;56932;38.402;-96.176;2023-02-28T10:35:21;96895.52;;;20.57;23.04
69689;BME280;56932;38.402;-96.176;2023-02-28T10:37:47;96898.18;;;20.66;22.95
69689;BME280;56932;38.402;-96.176;2023-02-28T10:42:36;96902.29;;;20.41;23.14
69689;BME280;56932;38.402;-96.176;2023-02-28T10:45:09;96906.56;;;20.23;23.04
69689;BME280;56932;38.402;-96.176;2023-02-28T10:47:27;96909.48;;;20.45;23.06
69689;BME280;56932;38.402;-96.176;2023-02-28T10:49:53;96906.93;;;19.73;23.25
69689;BME280;56932;38.402;-96.176;2023-02-28T10:54:43;96877.53;;;20.16;23.26
69689;BME280;56932;38.402;-96.176;2023-02-28T10:57:18;96857.90;;;20.29;23.12
69689;BME280;56932;38.402;-96.176;2023-02-28T10:59:35;96845.19;;;20.45;22.98
69689;BME280;56932;38.402;-96.176;2023-02-28T11:02:00;96840.46;;;20.14;23.24
69689;BME280;56932;38.402;-96.176;2023-02-28T11:04:34;96838.13;;;20.08;23.23
69689;BME280;56932;38.402;-96.176;2023-02-28T11:06:57;96833.66;;;19.86;23.17
69689;BME280;56932;38.402;-96.176;2023-02-28T11:09:21;96835.88;;;20.27;23.03
69689;BME280;56932;38.402;-96.176;2023-02-28T11:11:44;96824.42;;;20.19;23.06
69689;BME280;56932;38.402;-96.176;2023-02-28T11:14:17;96837.74;;;20.15;23.11
69689;BME280;56932;38.402;-96.176;2023-02-28T11:16:35;96844.58;;;20.89;22.85
69689;BME280;56932;38.402;-96.176;2023-02-28T11:18:59;96844.75;;;19.76;22.98
69689;BME280;56932;38.402;-96.176;2023-02-28T11:21:27;96848.44;;;20.15;23.07
69689;BME280;56932;38.402;-96.176;2023-02-28T11:23:56;96855.47;;;19.68;23.24
69689;BME280;56932;38.402;-96.176;2023-02-28T11:26:16;96844.66;;;20.34;22.91
69689;BME280;56932;38.402;-96.176;2023-02-28T11:28:42;96834.96;;;20.07;23.09
69689;BME280;56932;38.402;-96.176;2023-02-28T11:31:16;96831.38;;;19.84;23.26
69689;BME280;56932;38.402;-96.176;2023-02-28T11:33:40;96833.95;;;20.38;22.93
69689;BME280;56932;38.402;-96.176;2023-02-28T11:36:02;96831.67;;;19.78;22.99
69689;BME280;56932;38.402;-96.176;2023-02-28T11:38:24;96830.91;;;19.94;23.09
69689;BME280;56932;38.402;-96.176;2023-02-28T11:40:59;96829.42;;;19.68;23.25
69689;BME280;56932;38.402;-96.176;2023-02-28T11:43:24;96830.06;;;19.68;23.23
69689;BME280;56932;38.402;-96.176;2023-02-28T11:45:48;96838.40;;;20.02;22.92
69689;BME280;56932;38.402;-96.176;2023-02-28T11:48:12;96844.16;;;19.96;22.98
69689;BME280;56932;38.402;-96.176;2023-02-28T11:50:42;96846.66;;;20.11;22.80
69689;BME280;56932;38.402;-96.176;2023-02-28T11:53:01;96848.57;;;19.44;22.94
69689;BME280;56932;38.402;-96.176;2023-02-28T11:55:26;96856.43;;;19.93;22.91
69689;BME280;56932;38.402;-96.176;2023-02-28T11:57:59;96861.06;;;20.21;22.60
69689;BME280;56932;38.402;-96.176;2023-02-28T12:02:50;96863.03;;;20.25;22.76
69689;BME280;56932;38.402;-96.176;2023-02-28T12:05:15;96869.35;;;19.33;22.95
69689;BME280;56932;38.402;-96.176;2023-02-28T12:07:36;96875.45;;;19.76;23.00
69689;BME280;56932;38.402;-96.176;2023-02-28T12:10:01;96888.88;;;19.15;23.13
69689;BME280;56932;38.402;-96.176;2023-02-28T12:12:31;96899.19;;;19.77;23.24
69689;BME280;56932;38.402;-96.176;2023-02-28T12:17:22;96891.94;;;19.67;23.14
69689;BME280;56932;38.402;-96.176;2023-02-28T12:19:44;96902.93;;;20.11;23.10
69689;BME280;56932;38.402;-96.176;2023-02-28T12:22:16;96912.65;;;19.76;23.04
69689;BME280;56932;38.402;-96.176;2023-02-28T12:26:55;96911.98;;;18.98;23.29
69689;BME280;56932;38.402;-96.176;2023-02-28T12:29:23;96915.52;;;19.64;23.13
69689;BME280;56932;38.402;-96.176;2023-02-28T12:31:49;96917.02;;;19.64;23.29
69689;BME280;56932;38.402;-96.176;2023-02-28T12:34:15;96908.59;;;19.87;22.90
69689;BME280;56932;38.402;-96.176;2023-02-28T12:36:37;96905.70;;;19.47;23.22
69689;BME280;56932;38.402;-96.176;2023-02-28T12:39:06;96899.46;;;19.70;23.00
69689;BME280;56932;38.402;-96.176;2023-02-28T12:41:34;96893.07;;;19.77;23.10
69689;BME280;56932;38.402;-96.176;2023-02-28T12:43:58;96896.96;;;19.20;23.20
69689;BME280;56932;38.402;-96.176;2023-02-28T12:46:22;96896.43;;;20.12;22.99
69689;BME280;56932;38.402;-96.176;2023-02-28T12:48:48;96901.02;;;19.17;23.81
69689;BME280;56932;38.402;-96.176;2023-02-28T12:51:10;96909.27;;;19.68;23.45